Weather at Pichoy Airport

Public forecast

Using degrees Celsius for public forecast. Weather courtesy of forecast.io.

Current aviation weather report (METAR) for Pichoy Airport

Report is more than 6 hours old.

Retrieved 2022/01/20 23:00 UTC (9 hours ago):

SCVD 202300Z 31010KT 270V330 9999 SCT030 16/10 Q1016

Aviation forecast (TAF) for Pichoy Airport

Forecast is more than 12 hours old.

Retrieved 2022/01/20 18:00 UTC (14 hours ago):

TAF SCVD 201617Z 2018/2106 29010KT 9999 SCT040 TX20/2018Z TN09/2106Z BECMG 2100/2102 36005KT BKN023